Wednesday, September 19, 2018, 2:56 PM EDT
Back to Local

KMTN, Baltimore / Martin

Location: Middle River, MD, United States Lat: 39.333
Local Time: 2:56 PM EDT (18:56 GMT) Lon: -76.417
Time Zone: US/Eastern Elev: 22 ft

Show me the last for .
Show Coded

Time T Td Feel RH Dir Speed Gust Alt SLP Vis Weather Sky Remarks
2018-09-19 13:45 82 68 86 61 290° 10 - 29.94 - 10 FEW090 SCT180 None
2018-09-19 12:55 82 68 86 61 340° 12 - 29.95 - 10 SCT090 SCT180 None
2018-09-19 11:45 81 68 84 65 340° 10 - 29.94 - 10 SCT075 SCT180 None
2018-09-19 10:55 81 70 85 69 340° 13 - 29.94 - 10 SCT180 None
2018-09-19 09:45 79 72 83 78 350° 10 - 29.94 - 10 SCT180 None
2018-09-19 08:50 75 72 79 88 300° 10 - 29.93 - 10 SCT180 None
2018-09-19 07:45 72 70 76 94 300° 9 - 29.91 - 10 SCT200 None
2018-09-19 06:45 70 70 - 100 310° 5 - 29.88 - 10 SCT200 None
2018-09-19 05:45 70 70 - 100 310° 7 - 29.87 - 10 SCT150 None
2018-09-19 05:30 70 70 - 100 300° 7 - 29.86 - 10 CLR None
2018-09-19 05:24 70 70 - 100 300° 6 - 29.86 - 10 CLR None
2018-09-19 05:03 70 70 - 100 290° 9 - 29.86 - 10 CLR None
2018-09-19 04:45 68 68 - 100 290° 8 - 29.85 - 10 CLR None
2018-09-19 04:24 70 68 - 94 290° 5 - 29.85 - 10 CLR None
2018-09-19 04:03 70 68 - 94 - Calm - 29.85 - 10 CLR None
2018-09-19 03:45 70 70 - 100 300° 3 - 29.85 - 10 CLR None
2018-09-19 03:24 70 70 - 100 300° 6 - 29.85 - 10 CLR None
2018-09-19 03:03 72 70 76 94 300° 6 - 29.84 - 10 CLR None
2018-09-19 02:45 72 70 76 94 300° 8 - 29.84 - 10 CLR None
2018-09-19 02:24 72 70 76 94 300° 9 - 29.84 - 10 CLR None
2018-09-19 02:03 72 70 76 94 300° 8 - 29.84 - 10 CLR None
2018-09-19 01:45 72 70 76 94 300° 6 - 29.84 - 10 CLR None
2018-09-19 01:24 72 70 76 94 300° 7 - 29.83 - 10 CLR None
2018-09-19 01:03 72 70 76 94 300° 8 - 29.83 - 10 CLR None
2018-09-19 00:45 72 70 76 94 290° 8 - 29.83 - 10 CLR None
2018-09-19 00:24 72 70 76 94 290° 6 - 29.83 - 10 CLR None
2018-09-19 00:03 72 70 76 94 300° 6 - 29.83 - 10 CLR None
2018-09-18 23:45 72 70 76 94 300° 6 - 29.84 - 10 CLR None
2018-09-18 23:24 72 70 76 94 300° 7 - 29.84 - 10 CLR None
2018-09-18 23:03 72 70 76 94 300° 6 - 29.84 - 10 CLR None
2018-09-18 22:45 72 70 76 94 300° 6 - 29.84 - 10 CLR None
2018-09-18 22:24 72 70 76 94 290° 6 - 29.83 - 10 CLR None
2018-09-18 21:45 73 72 78 94 310° 5 - 29.83 - 10 CLR None
2018-09-18 20:50 73 72 78 94 300° 7 - 29.82 - 10 CLR None
2018-09-18 19:50 75 72 79 88 290° 7 - 29.81 - 10 CLR None
2018-09-18 18:45 81 72 85 74 320° 7 - 29.79 - 10 BKN100 None
2018-09-18 17:45 81 75 87 83 290° 9 - 29.78 - 10 BKN100 None
2018-09-18 15:45 79 73 84 83 320° 12 17 29.76 - 10 BKN060 OVC100 None

Support USWX by starting your Amazon purchase here.